Time;durP1;ratioP1;P1;durP2;ratioP2;P2;SDS_P1;SDS_P2;PMS_P1;PMS_P2;Temp;Humidity;BMP_temperature;BMP_pressure;BME280_temperature;BME280_humidity;BME280_pressure;Samples;Min_cycle;Max_cycle;Signal;HPM_P1;HPM_P2
2021/01/15 00:01:19;;;;;;;14.50;9.13;;;4.40;93.40;;;;;;5001375;28;20050;-79
2021/01/15 00:03:44;;;;;;;12.85;8.95;;;4.40;93.50;;;;;;5010973;28;20032;-78
2021/01/15 00:06:19;;;;;;;13.48;8.70;;;4.50;93.20;;;;;;5030975;28;20112;-81
2021/01/15 00:08:45;;;;;;;14.38;9.23;;;4.40;93.10;;;;;;5003497;28;20113;-79
2021/01/15 00:11:22;;;;;;;14.30;9.20;;;4.40;93.30;;;;;;5022986;28;20228;-79
2021/01/15 00:13:49;;;;;;;15.65;9.73;;;4.40;93.40;;;;;;5019158;28;20022;-78
2021/01/15 00:16:28;;;;;;;14.10;9.80;;;4.30;93.30;;;;;;5028490;28;20033;-78
2021/01/15 00:18:55;;;;;;;16.77;10.90;;;4.40;93.10;;;;;;5007344;28;20045;-82
2021/01/15 00:21:24;;;;;;;16.65;11.43;;;4.40;93.40;;;;;;5009881;28;20037;-80
2021/01/15 00:23:51;;;;;;;18.48;12.10;;;4.30;93.40;;;;;;5001038;28;20378;-80
2021/01/15 00:26:18;;;;;;;19.50;11.63;;;4.30;93.80;;;;;;5013836;28;20022;-77
2021/01/15 00:28:45;;;;;;;18.10;11.85;;;4.40;93.80;;;;;;5014189;28;20018;-78
2021/01/15 00:31:10;;;;;;;20.10;12.32;;;4.30;93.80;;;;;;5020489;28;20288;-81
2021/01/15 00:33:36;;;;;;;20.60;11.77;;;4.30;93.80;;;;;;5015001;28;20026;-79
2021/01/15 00:36:02;;;;;;;16.40;11.00;;;4.40;93.80;;;;;;5001910;28;20120;-77
2021/01/15 00:38:28;;;;;;;18.35;12.55;;;4.40;93.70;;;;;;5004401;28;20022;-83
2021/01/15 00:41:05;;;;;;;20.38;11.50;;;4.40;93.80;;;;;;5011530;28;20025;-81
2021/01/15 00:43:31;;;;;;;18.40;11.55;;;4.30;93.90;;;;;;5030072;28;20025;-77
2021/01/15 00:45:58;;;;;;;20.50;11.80;;;4.40;93.50;;;;;;5018583;28;20010;-77
2021/01/15 00:48:23;;;;;;;;;;;4.40;93.60;;;;;;5024527;28;20022;-79
2021/01/15 00:50:49;;;;;;;18.42;11.68;;;4.30;93.70;;;;;;5013088;28;19906;-78
2021/01/15 00:53:14;;;;;;;19.38;12.43;;;4.30;93.60;;;;;;5013444;28;20105;-78
2021/01/15 00:55:40;;;;;;;20.23;12.82;;;4.30;93.70;;;;;;5012958;28;20042;-79
2021/01/15 00:58:06;;;;;;;20.33;12.63;;;4.20;93.90;;;;;;5003214;28;20025;-77
2021/01/15 01:00:31;;;;;;;22.33;13.10;;;4.20;93.80;;;;;;5013935;28;20044;-77
2021/01/15 01:02:57;;;;;;;21.35;13.00;;;4.20;93.70;;;;;;5002448;28;20030;-77
2021/01/15 01:05:23;;;;;;;22.42;13.90;;;4.20;93.90;;;;;;5025987;28;20033;-77
2021/01/15 01:07:49;;;;;;;22.73;14.25;;;4.20;94.00;;;;;;5014767;28;20041;-78
2021/01/15 01:10:15;;;;;;;;;;;4.20;94.50;;;;;;5009437;28;20108;-78
2021/01/15 01:12:41;;;;;;;23.13;13.45;;;4.20;94.10;;;;;;5031328;28;19944;-82
2021/01/15 01:15:12;;;;;;;25.38;14.75;;;4.20;94.30;;;;;;5031887;28;20494;-77
2021/01/15 01:17:39;;;;;;;26.92;15.80;;;4.20;94.20;;;;;;5019764;28;20015;-79
2021/01/15 01:20:06;;;;;;;26.20;16.27;;;4.20;94.20;;;;;;5002540;28;20391;-80
2021/01/15 01:22:32;;;;;;;24.13;14.88;;;4.20;94.50;;;;;;5011770;28;20014;-80
2021/01/15 01:24:58;;;;;;;26.75;15.75;;;4.30;94.10;;;;;;5010837;28;20037;-77
2021/01/15 01:27:23;;;;;;;24.88;14.55;;;4.30;94.10;;;;;;5011652;28;20370;-81
2021/01/15 01:29:49;;;;;;;27.48;15.57;;;4.30;94.20;;;;;;5009835;28;20034;-78
2021/01/15 01:32:14;;;;;;;28.67;17.25;;;4.30;93.80;;;;;;5008466;28;20568;-77
2021/01/15 01:34:40;;;;;;;30.10;17.20;;;4.30;94.10;;;;;;5005636;28;20050;-82
2021/01/15 01:37:06;;;;;;;28.15;16.17;;;4.10;94.60;;;;;;5031091;28;20029;-76
2021/01/15 01:39:32;;;;;;;26.40;15.82;;;4.20;94.70;;;;;;5027727;28;20025;-80
2021/01/15 01:41:57;;;;;;;25.75;15.77;;;4.30;94.50;;;;;;5009468;28;20490;-79
2021/01/15 01:44:24;;;;;;;28.15;15.98;;;4.30;94.40;;;;;;5010522;28;20022;-79
2021/01/15 01:46:51;;;;;;;27.92;16.98;;;4.30;94.50;;;;;;5010586;28;20069;-80
2021/01/15 01:49:17;;;;;;;28.45;16.25;;;4.30;94.40;;;;;;5009530;28;20018;-78
2021/01/15 01:51:45;;;;;;;29.60;17.80;;;4.30;94.30;;;;;;5011306;28;20025;-79
2021/01/15 01:54:12;;;;;;;28.33;16.98;;;4.20;94.20;;;;;;5010665;28;20029;-79
2021/01/15 01:56:39;;;;;;;28.63;17.13;;;4.20;94.50;;;;;;5005504;28;20391;-80
2021/01/15 01:59:07;;;;;;;29.10;17.77;;;4.30;94.40;;;;;;5013706;28;20133;-80
2021/01/15 02:01:33;;;;;;;34.60;19.40;;;4.20;94.80;;;;;;5006834;28;20030;-77
2021/01/15 02:04:04;;;;;;;30.85;18.17;;;4.20;95.20;;;;;;5011811;28;20034;-80
2021/01/15 02:06:32;;;;;;;31.13;18.10;;;4.20;94.60;;;;;;5030493;28;20021;-82
2021/01/15 02:08:58;;;;;;;33.92;18.55;;;4.30;94.50;;;;;;5014347;28;20052;-77
2021/01/15 02:11:40;;;;;;;30.30;17.55;;;4.30;94.60;;;;;;5014268;28;20030;-77
2021/01/15 02:14:27;;;;;;;29.38;18.00;;;4.20;94.70;;;;;;5009622;28;20035;-77
2021/01/15 02:16:55;;;;;;;35.10;18.42;;;4.20;94.80;;;;;;5003145;28;20113;-79
2021/01/15 02:19:58;;;;;;;35.58;18.65;;;4.20;94.90;;;;;;5007174;28;20062;-78
2021/01/15 02:23:01;;;;;;;32.92;18.15;;;4.20;95.00;;;;;;5004153;28;20036;-78
2021/01/15 02:25:48;;;;;;;36.88;20.27;;;4.30;94.60;;;;;;5000988;28;20045;-79
2021/01/15 02:28:51;;;;;;;29.92;17.50;;;4.20;94.90;;;;;;5022448;28;20029;-79
2021/01/15 02:31:44;;;;;;;32.30;17.85;;;4.20;94.80;;;;;;5026097;28;20040;-81
2021/01/15 02:34:32;;;;;;;28.30;18.05;;;4.10;94.50;;;;;;4997500;28;20030;-81
2021/01/15 02:37:03;;;;;;;;;;;4.10;94.80;;;;;;5004688;28;20041;-79
2021/01/15 02:39:56;;;;;;;29.90;15.75;;;4.20;94.90;;;;;;5010416;28;19992;-82
2021/01/15 02:42:25;;;;;;;27.40;15.63;;;4.20;94.40;;;;;;5009820;28;20025;-78
2021/01/15 02:44:53;;;;;;;33.88;16.58;;;4.20;94.20;;;;;;5002872;28;20124;-80
2021/01/15 02:47:29;;;;;;;34.25;17.90;;;4.20;94.50;;;;;;5007860;28;20030;-79
2021/01/15 02:49:56;;;;;;;28.27;15.57;;;4.20;94.60;;;;;;5014639;28;20022;-80
2021/01/15 02:52:22;;;;;;;29.42;17.45;;;4.10;94.60;;;;;;4998973;28;20045;-78
2021/01/15 02:54:47;;;;;;;27.90;16.05;;;4.10;94.60;;;;;;5024455;28;20115;-81
2021/01/15 02:57:13;;;;;;;30.92;16.70;;;4.10;94.60;;;;;;5017298;28;20029;-78
2021/01/15 02:59:38;;;;;;;29.30;15.70;;;4.00;94.40;;;;;;5023505;28;20030;-77
2021/01/15 03:02:13;;;;;;;31.95;16.70;;;4.10;94.70;;;;;;5025569;28;20034;-79
2021/01/15 03:04:53;;;;;;;28.52;15.80;;;4.10;94.80;;;;;;4999489;28;20502;-81
2021/01/15 03:07:21;;;;;;;34.53;16.70;;;4.10;94.40;;;;;;5012730;28;20057;-79
2021/01/15 03:09:48;;;;;;;29.13;15.30;;;4.10;94.30;;;;;;5002217;28;20491;-77
2021/01/15 03:12:15;;;;;;;34.20;17.48;;;4.10;94.20;;;;;;5013635;28;20026;-78
2021/01/15 03:14:43;;;;;;;32.53;18.40;;;4.00;94.50;;;;;;5013778;28;20390;-78
2021/01/15 03:17:10;;;;;;;33.97;18.35;;;4.00;94.70;;;;;;5001631;28;20054;-77
2021/01/15 03:19:37;;;;;;;28.77;16.85;;;3.90;94.70;;;;;;5006422;28;20014;-81
2021/01/15 03:22:18;;;;;;;30.83;17.08;;;3.80;94.90;;;;;;5030004;28;20045;-81
2021/01/15 03:25:02;;;;;;;32.63;16.90;;;3.80;94.80;;;;;;5030867;28;20040;-76
2021/01/15 03:27:49;;;;;;;29.00;15.85;;;3.70;94.90;;;;;;5011369;28;20475;-78
2021/01/15 03:30:18;;;;;;;31.88;17.33;;;3.60;95.10;;;;;;5009571;28;20579;-77
2021/01/15 03:32:45;;;;;;;37.03;18.98;;;3.50;95.10;;;;;;5013926;28;20025;-78
2021/01/15 03:35:22;;;;;;;32.10;18.15;;;3.50;95.10;;;;;;5011631;28;20073;-81
2021/01/15 03:38:09;;;;;;;41.35;20.45;;;3.40;95.30;;;;;;5013270;28;20088;-78
2021/01/15 03:40:39;;;;;;;34.13;17.05;;;3.30;95.60;;;;;;5008177;28;20065;-77
2021/01/15 03:43:12;;;;;;;38.92;18.33;;;3.30;95.60;;;;;;5013255;28;20026;-77
2021/01/15 03:45:38;;;;;;;37.92;20.02;;;3.20;95.40;;;;;;5032690;28;20057;-79
2021/01/15 03:48:05;;;;;;;38.90;20.10;;;3.10;95.70;;;;;;5011362;28;20033;-79
2021/01/15 03:50:31;;;;;;;37.60;19.30;;;3.00;95.80;;;;;;5013165;28;20056;-81
2021/01/15 03:52:57;;;;;;;40.70;19.27;;;2.90;96.10;;;;;;5008144;28;20031;-81
2021/01/15 03:55:22;;;;;;;35.97;19.77;;;2.90;96.30;;;;;;5007495;28;20053;-78
2021/01/15 03:57:48;;;;;;;45.45;20.25;;;2.90;96.30;;;;;;5010206;28;20026;-80
2021/01/15 04:00:14;;;;;;;40.38;20.13;;;2.80;96.60;;;;;;5003622;28;20069;-80
2021/01/15 04:02:40;;;;;;;37.67;19.77;;;2.90;96.60;;;;;;5007904;28;20055;-78
2021/01/15 04:05:09;;;;;;;37.17;18.30;;;2.90;96.60;;;;;;5019528;28;20109;-80
2021/01/15 04:07:35;;;;;;;41.67;19.38;;;2.90;96.40;;;;;;5011335;28;20391;-78
2021/01/15 04:10:01;;;;;;;38.15;18.75;;;2.90;96.20;;;;;;5009328;28;20034;-78
2021/01/15 04:12:29;;;;;;;39.30;19.15;;;2.90;96.10;;;;;;5004037;28;20023;-77
2021/01/15 04:14:55;;;;;;;40.95;19.88;;;2.80;96.00;;;;;;5008984;28;20458;-80
2021/01/15 04:17:22;;;;;;;37.42;19.80;;;2.70;96.30;;;;;;5007000;28;20041;-82
2021/01/15 04:19:48;;;;;;;44.65;20.10;;;2.60;96.40;;;;;;5015914;28;20034;-80
2021/01/15 04:22:14;;;;;;;45.38;20.85;;;2.50;96.70;;;;;;5009192;28;20538;-79
2021/01/15 04:24:39;;;;;;;44.20;19.98;;;2.40;96.90;;;;;;5005498;28;20104;-81
2021/01/15 04:27:06;;;;;;;46.72;20.90;;;2.40;97.00;;;;;;5015586;28;20064;-79
2021/01/15 04:29:31;;;;;;;;;;;2.30;97.10;;;;;;5020593;28;20022;-77
2021/01/15 04:31:57;;;;;;;45.25;20.27;;;2.20;97.20;;;;;;5012676;28;19909;-79
2021/01/15 04:34:22;;;;;;;51.67;21.30;;;2.30;97.40;;;;;;5010049;28;20033;-77
2021/01/15 04:36:48;;;;;;;44.40;21.70;;;2.30;97.20;;;;;;5002215;28;20026;-78
2021/01/15 04:39:14;;;;;;;47.55;20.85;;;2.20;97.30;;;;;;5011010;28;20030;-76
2021/01/15 04:41:43;;;;;;;42.58;20.52;;;2.30;97.30;;;;;;5007150;28;20487;-77
2021/01/15 04:44:10;;;;;;;47.80;20.65;;;2.40;97.20;;;;;;5011500;28;20014;-80
2021/01/15 04:46:38;;;;;;;46.17;21.30;;;2.40;97.10;;;;;;5009956;28;20033;-79
2021/01/15 04:49:09;;;;;;;54.22;22.77;;;2.30;96.90;;;;;;4993325;28;20081;-79
2021/01/15 04:51:36;;;;;;;49.50;22.10;;;2.30;96.90;;;;;;5019128;28;20158;-77
2021/01/15 04:54:08;;;;;;;45.55;21.45;;;2.30;97.10;;;;;;5008272;28;20033;-77
2021/01/15 04:56:50;;;;;;;51.70;22.48;;;2.20;97.10;;;;;;5000820;28;21403;-79
2021/01/15 04:59:17;;;;;;;40.10;20.58;;;2.10;97.10;;;;;;5011326;28;20040;-77
2021/01/15 05:01:47;;;;;;;45.63;21.48;;;2.20;97.10;;;;;;4998264;28;20034;-81
2021/01/15 05:04:15;;;;;;;45.28;21.83;;;2.10;97.20;;;;;;5007733;28;20038;-75
2021/01/15 05:06:52;;;;;;;42.80;20.23;;;2.10;97.10;;;;;;5012681;28;20034;-80
2021/01/15 05:09:22;;;;;;;37.45;16.08;;;2.10;97.00;;;;;;4996551;28;20034;-77
2021/01/15 05:11:50;;;;;;;41.53;20.23;;;2.00;96.90;;;;;;5020244;28;20064;-75
2021/01/15 05:14:17;;;;;;;41.33;19.75;;;2.10;96.90;;;;;;5029053;28;20078;-76
2021/01/15 05:16:45;;;;;;;36.45;18.55;;;2.10;96.90;;;;;;5007779;28;20402;-76
2021/01/15 05:19:12;;;;;;;40.30;19.02;;;2.10;96.30;;;;;;4996558;28;20018;-76
2021/01/15 05:21:38;;;;;;;33.95;17.52;;;2.00;96.20;;;;;;5011619;28;20025;-76
2021/01/15 05:24:05;;;;;;;35.25;17.40;;;2.10;96.20;;;;;;5003083;28;20067;-77
2021/01/15 05:26:38;;;;;;;30.02;15.93;;;2.00;96.00;;;;;;5012177;28;20034;-76
2021/01/15 05:29:08;;;;;;;35.60;17.38;;;2.00;96.00;;;;;;5000184;28;20033;-76
2021/01/15 05:31:52;;;;;;;40.53;17.40;;;2.00;96.30;;;;;;5012011;28;20037;-76
2021/01/15 05:34:23;;;;;;;34.72;17.95;;;1.90;96.20;;;;;;5001333;28;20028;-76
2021/01/15 05:36:49;;;;;;;37.95;18.08;;;1.90;96.30;;;;;;5006968;28;20120;-76
2021/01/15 05:39:23;;;;;;;33.35;16.13;;;1.90;96.10;;;;;;5002727;28;20054;-77
2021/01/15 05:41:50;;;;;;;36.42;16.95;;;1.90;96.10;;;;;;4998337;28;20022;-76
2021/01/15 05:44:42;;;;;;;32.30;16.23;;;1.80;96.20;;;;;;5012326;28;20071;-76
2021/01/15 05:47:08;;;;;;;38.95;18.30;;;1.80;96.20;;;;;;5010199;28;20180;-76
2021/01/15 05:49:34;;;;;;;32.67;16.45;;;1.70;96.10;;;;;;5009287;28;20474;-77
2021/01/15 05:52:07;;;;;;;40.15;19.60;;;1.70;96.40;;;;;;5013063;28;20471;-76
2021/01/15 05:54:34;;;;;;;44.38;19.67;;;1.70;96.30;;;;;;5012672;28;20045;-76
2021/01/15 05:57:01;;;;;;;49.72;19.48;;;1.70;96.20;;;;;;5011875;28;20382;-76
2021/01/15 05:59:27;;;;;;;42.53;18.70;;;1.70;96.40;;;;;;5020069;28;20018;-76
2021/01/15 06:01:55;;;;;;;38.53;18.02;;;1.60;96.50;;;;;;5003379;28;20088;-75
2021/01/15 06:04:33;;;;;;;47.30;18.58;;;1.50;96.70;;;;;;5009271;28;20057;-76
2021/01/15 06:07:08;;;;;;;45.00;19.88;;;1.40;96.70;;;;;;5028276;28;20053;-78
2021/01/15 06:09:35;;;;;;;40.33;18.63;;;1.40;97.00;;;;;;5014326;28;20049;-77
2021/01/15 06:12:07;;;;;;;42.00;19.65;;;1.40;97.00;;;;;;5020977;28;20153;-76
2021/01/15 06:14:33;;;;;;;39.40;19.35;;;1.40;97.00;;;;;;5014933;28;20038;-76
2021/01/15 06:17:05;;;;;;;40.70;17.52;;;1.40;96.90;;;;;;5004842;28;20048;-76
2021/01/15 06:20:02;;;;;;;40.03;19.35;;;1.40;97.00;;;;;;5004737;28;20042;-76
2021/01/15 06:22:31;;;;;;;51.53;19.73;;;1.40;96.90;;;;;;5012506;28;20089;-76
2021/01/15 06:25:55;;;;;;;51.20;18.67;;;1.40;96.90;;;;;;5012413;28;20034;-78
2021/01/15 06:28:33;;;;;;;47.58;20.60;;;1.30;97.30;;;;;;5003327;28;20066;-75
2021/01/15 06:31:04;;;;;;;39.47;17.83;;;1.30;97.50;;;;;;5006605;28;20022;-76
2021/01/15 06:33:31;;;;;;;53.90;20.50;;;1.30;97.40;;;;;;5012543;28;20054;-75
2021/01/15 06:35:58;;;;;;;46.97;20.05;;;1.30;97.50;;;;;;5021150;28;20038;-75
2021/01/15 06:38:29;;;;;;;43.58;20.35;;;1.30;97.70;;;;;;5010834;28;20025;-76
2021/01/15 06:40:55;;;;;;;47.03;19.92;;;1.40;97.80;;;;;;5011840;28;20446;-75
2021/01/15 06:43:26;;;;;;;37.13;19.95;;;1.40;97.80;;;;;;5002430;28;20076;-77
2021/01/15 06:45:54;;;;;;;46.40;19.92;;;1.50;97.60;;;;;;5010902;28;20113;-76
2021/01/15 06:48:34;;;;;;;47.75;20.05;;;1.60;97.80;;;;;;5005712;28;20049;-76
2021/01/15 06:51:00;;;;;;;39.70;17.88;;;1.60;97.20;;;;;;5008585;28;20033;-76
2021/01/15 06:53:27;;;;;;;41.90;18.70;;;1.70;97.20;;;;;;5016476;28;20030;-79
2021/01/15 06:56:06;;;;;;;43.13;19.77;;;1.70;96.60;;;;;;5001204;28;20026;-75
2021/01/15 06:58:40;;;;;;;39.95;18.58;;;1.70;96.50;;;;;;5013758;28;20034;-77
2021/01/15 07:01:21;;;;;;;37.17;17.65;;;1.80;96.60;;;;;;5012320;28;20026;-78
2021/01/15 07:04:02;;;;;;;32.83;17.60;;;1.70;96.40;;;;;;5034255;28;20022;-75
2021/01/15 07:06:33;;;;;;;29.90;15.25;;;1.70;96.50;;;;;;5009811;28;20022;-77
2021/01/15 07:09:03;;;;;;;34.25;17.02;;;1.80;96.50;;;;;;5029118;28;20028;-77
2021/01/15 07:11:30;;;;;;;38.78;16.15;;;1.80;96.10;;;;;;5009922;28;20117;-77
2021/01/15 07:13:58;;;;;;;41.35;16.58;;;2.00;95.70;;;;;;5015424;28;20022;-76
2021/01/15 07:16:30;;;;;;;33.78;17.90;;;1.90;95.30;;;;;;5016380;28;20025;-77
2021/01/15 07:19:08;;;;;;;32.20;17.67;;;1.90;95.60;;;;;;5010056;28;20041;-78
2021/01/15 07:21:35;;;;;;;40.03;17.67;;;1.80;96.00;;;;;;5011512;28;20104;-77
2021/01/15 07:24:08;;;;;;;42.40;17.77;;;1.80;96.40;;;;;;5012974;28;20476;-77
2021/01/15 07:26:41;;;;;;;39.17;18.02;;;1.90;96.40;;;;;;5009831;28;20124;-77
2021/01/15 07:29:26;;;;;;;40.00;18.23;;;1.90;96.30;;;;;;5013956;28;20048;-78
2021/01/15 07:32:21;;;;;;;32.65;18.00;;;1.80;96.30;;;;;;5012373;28;20029;-75
2021/01/15 07:34:54;;;;;;;38.50;19.95;;;1.80;96.30;;;;;;5022365;28;20137;-76
2021/01/15 07:37:28;;;;;;;42.72;19.35;;;1.70;96.20;;;;;;5000865;28;20088;-77
2021/01/15 07:40:00;;;;;;;38.20;19.45;;;1.80;96.40;;;;;;5013460;28;20026;-79
2021/01/15 07:42:58;;;;;;;34.38;17.73;;;1.80;96.60;;;;;;5013990;28;20017;-76
2021/01/15 07:45:24;;;;;;;48.50;18.02;;;1.90;96.50;;;;;;5012246;28;20033;-78
2021/01/15 07:47:54;;;;;;;37.33;18.73;;;2.00;95.90;;;;;;5024822;28;20022;-74
2021/01/15 07:50:34;;;;;;;38.53;17.95;;;2.00;95.50;;;;;;5016026;28;20042;-75
2021/01/15 07:53:17;;;;;;;29.35;16.52;;;1.90;96.10;;;;;;5015187;28;20475;-83
2021/01/15 07:55:56;;;;;;;36.47;17.65;;;1.90;95.90;;;;;;5029497;28;20111;-83
2021/01/15 07:58:43;;;;;;;37.10;17.13;;;1.90;96.40;;;;;;5027038;28;20056;-80
2021/01/15 08:01:12;;;;;;;37.60;17.10;;;1.90;96.10;;;;;;5031303;28;20037;-84
2021/01/15 08:03:49;;;;;;;32.03;15.40;;;1.90;96.20;;;;;;5027418;28;20482;-84
2021/01/15 08:06:19;;;;;;;36.97;16.42;;;1.90;95.90;;;;;;5009265;28;20037;-85
2021/01/15 08:08:58;;;;;;;37.00;17.55;;;1.90;96.30;;;;;;5013662;28;20017;-82
2021/01/15 08:11:24;;;;;;;43.00;20.30;;;1.80;95.90;;;;;;5009839;28;20486;-84
2021/01/15 08:14:08;;;;;;;30.23;15.80;;;1.90;95.90;;;;;;5017920;28;20018;-83
2021/01/15 08:16:34;;;;;;;46.67;17.95;;;1.80;96.30;;;;;;5014019;28;20037;-83
2021/01/15 08:19:00;;;;;;;;;;;1.90;96.30;;;;;;5012783;28;20025;-83
2021/01/15 08:21:27;;;;;;;41.67;15.40;;;2.00;95.60;;;;;;5014282;28;19921;-84
2021/01/15 08:24:02;;;;;;;29.33;14.43;;;2.00;96.00;;;;;;5013475;28;20104;-83
2021/01/15 08:26:41;;;;;;;31.80;15.32;;;2.00;95.70;;;;;;5009502;28;20014;-81
2021/01/15 08:29:07;;;;;;;29.67;13.43;;;2.00;95.70;;;;;;5013741;28;20022;-83
2021/01/15 08:31:33;;;;;;;29.23;14.93;;;1.90;95.10;;;;;;5017408;28;20507;-85
2021/01/15 08:34:09;;;;;;;34.78;16.60;;;1.90;95.80;;;;;;5020798;28;20057;-83
2021/01/15 08:36:37;;;;;;;;;;;1.80;96.00;;;;;;5010002;28;20057;-83
2021/01/15 08:39:04;;;;;;;39.05;15.55;;;1.90;95.90;;;;;;5013803;28;19925;-84
2021/01/15 08:41:29;;;;;;;36.38;15.52;;;2.00;96.30;;;;;;5013066;28;20029;-81
2021/01/15 08:43:56;;;;;;;28.17;14.77;;;2.00;95.70;;;;;;5013628;28;20018;-82
2021/01/15 08:46:23;;;;;;;25.85;15.20;;;2.00;95.70;;;;;;5012938;28;20084;-82
2021/01/15 08:48:50;;;;;;;29.70;14.00;;;1.90;95.30;;;;;;5014032;28;20375;-83
2021/01/15 08:51:19;;;;;;;31.05;15.30;;;1.90;95.70;;;;;;5012895;28;20034;-84
2021/01/15 08:54:05;;;;;;;27.92;15.07;;;1.90;95.80;;;;;;5010142;28;20026;-83
2021/01/15 08:56:42;;;;;;;29.27;11.23;;;1.90;95.10;;;;;;5014121;28;20128;-84
2021/01/15 08:59:12;;;;;;;29.92;13.90;;;1.90;95.30;;;;;;5012928;28;20148;-82
2021/01/15 09:01:40;;;;;;;27.02;14.35;;;1.90;95.30;;;;;;5031196;28;20076;-79
2021/01/15 09:04:11;;;;;;;28.77;15.63;;;2.10;94.90;;;;;;5013946;28;20033;-82
2021/01/15 09:06:38;;;;;;;38.13;15.70;;;2.10;95.30;;;;;;5007478;28;20360;-85
2021/01/15 09:09:18;;;;;;;27.38;14.77;;;2.10;94.90;;;;;;5010879;28;20030;-83
2021/01/15 09:11:45;;;;;;;32.10;12.75;;;2.00;95.70;;;;;;4998593;28;20108;-81
2021/01/15 09:14:13;;;;;;;;;;;2.00;95.40;;;;;;5000418;28;20041;-84
2021/01/15 09:16:41;;;;;;;23.90;12.27;;;2.00;95.50;;;;;;5012422;28;19924;-83
2021/01/15 09:19:09;;;;;;;33.00;14.25;;;2.00;95.00;;;;;;5022560;28;20017;-85
2021/01/15 09:22:07;;;;;;;25.73;13.07;;;1.90;94.90;;;;;;5011873;28;20030;-83
2021/01/15 09:24:34;;;;;;;25.42;12.68;;;2.00;95.00;;;;;;5005752;28;20566;-86
2021/01/15 09:27:05;;;;;;;22.35;12.30;;;2.20;94.70;;;;;;5023784;28;20026;-83
2021/01/15 09:29:34;;;;;;;25.45;13.77;;;2.10;94.40;;;;;;5021451;28;20072;-83
2021/01/15 09:32:01;;;;;;;26.15;14.18;;;2.10;95.00;;;;;;5014721;28;20455;-83
2021/01/15 09:34:27;;;;;;;28.60;13.45;;;2.20;95.00;;;;;;5013131;28;20037;-83
2021/01/15 09:36:54;;;;;;;24.85;13.68;;;2.10;94.70;;;;;;5013270;28;20063;-84
2021/01/15 09:39:22;;;;;;;22.73;12.55;;;2.10;94.70;;;;;;5022235;28;20023;-85
2021/01/15 09:41:50;;;;;;;28.60;14.82;;;2.20;94.80;;;;;;5013498;28;20061;-85
2021/01/15 09:44:17;;;;;;;31.90;15.05;;;2.10;95.20;;;;;;5004361;28;20044;-84
2021/01/15 09:46:44;;;;;;;32.25;14.73;;;2.10;95.20;;;;;;5019872;28;20051;-84
2021/01/15 09:49:09;;;;;;;34.38;14.60;;;2.20;95.40;;;;;;5006120;28;20029;-84
2021/01/15 09:51:35;;;;;;;30.52;15.73;;;2.20;95.30;;;;;;5000294;28;20027;-85
2021/01/15 09:54:01;;;;;;;27.95;14.13;;;2.30;95.10;;;;;;5036457;28;20064;-84
2021/01/15 09:56:29;;;;;;;31.70;15.52;;;2.30;95.00;;;;;;5042652;28;20046;-83
2021/01/15 09:58:56;;;;;;;32.50;16.13;;;2.40;94.70;;;;;;5024683;28;20525;-85
2021/01/15 10:01:26;;;;;;;30.17;15.43;;;2.30;94.80;;;;;;5003357;28;20058;-84
2021/01/15 10:03:56;;;;;;;36.75;16.95;;;2.30;95.20;;;;;;5011154;28;20113;-86
2021/01/15 10:06:22;;;;;;;30.73;15.95;;;2.30;94.80;;;;;;5014624;28;20391;-85
2021/01/15 10:08:48;;;;;;;29.23;15.90;;;2.30;94.70;;;;;;5008820;28;20084;-85
2021/01/15 10:11:20;;;;;;;;;;;2.40;95.20;;;;;;5006880;28;20049;-85
2021/01/15 10:13:46;;;;;;;33.17;14.38;;;2.30;94.50;;;;;;5018489;28;19940;-88
2021/01/15 10:16:12;;;;;;;26.92;14.32;;;2.40;94.90;;;;;;5018206;28;20034;-86
2021/01/15 10:18:39;;;;;;;25.83;14.20;;;2.40;94.60;;;;;;5009731;28;20680;-85
2021/01/15 10:21:06;;;;;;;24.88;11.70;;;2.40;94.90;;;;;;5009778;28;20295;-85
2021/01/15 10:23:34;;;;;;;26.90;13.38;;;2.50;93.90;;;;;;5016604;28;20083;-83
2021/01/15 10:26:00;;;;;;;23.05;12.15;;;2.50;94.40;;;;;;5012909;28;20041;-85
2021/01/15 10:28:25;;;;;;;26.40;13.20;;;2.50;93.50;;;;;;5009286;28;20026;-85
2021/01/15 10:30:51;;;;;;;26.15;12.30;;;2.50;93.50;;;;;;5014494;28;20029;-84
2021/01/15 10:33:19;;;;;;;25.70;11.20;;;2.50;94.20;;;;;;5012705;28;20033;-85
2021/01/15 10:35:45;;;;;;;19.20;11.27;;;2.60;93.50;;;;;;5024823;28;20038;-85
2021/01/15 10:38:10;;;;;;;30.13;13.13;;;2.70;93.60;;;;;;5013799;28;20080;-86
2021/01/15 10:40:36;;;;;;;23.55;13.07;;;2.70;94.00;;;;;;5014346;28;20038;-85
2021/01/15 10:43:01;;;;;;;22.40;11.85;;;2.70;93.50;;;;;;5026454;28;20033;-84
2021/01/15 10:45:27;;;;;;;28.13;12.40;;;2.60;93.80;;;;;;5014120;28;20040;-85
2021/01/15 10:47:53;;;;;;;26.15;13.05;;;2.70;93.50;;;;;;5021682;28;20060;-86
2021/01/15 10:50:18;;;;;;;22.75;12.35;;;2.70;94.20;;;;;;5020397;28;21152;-84
2021/01/15 10:52:52;;;;;;;25.92;12.40;;;2.90;92.60;;;;;;5019618;28;20030;-84
2021/01/15 10:55:17;;;;;;;25.95;12.80;;;3.00;93.60;;;;;;5022362;28;20091;-86
2021/01/15 10:57:44;;;;;;;21.85;12.60;;;3.10;92.20;;;;;;5022022;28;20494;-86
2021/01/15 11:00:11;;;;;;;23.50;12.07;;;3.00;93.00;;;;;;5022811;28;20057;-84
2021/01/15 11:02:37;;;;;;;28.75;13.00;;;3.10;93.20;;;;;;5014181;28;20467;-85
2021/01/15 11:05:04;;;;;;;27.73;13.00;;;3.10;93.00;;;;;;5016225;28;20040;-85
2021/01/15 11:07:30;;;;;;;26.83;12.57;;;3.00;93.20;;;;;;5014986;28;20387;-86
2021/01/15 11:09:55;;;;;;;22.60;11.00;;;3.00;93.90;;;;;;5013723;28;20044;-84
2021/01/15 11:12:21;;;;;;;20.92;11.32;;;3.10;93.00;;;;;;5018839;28;20029;-86
2021/01/15 11:14:46;;;;;;;24.63;11.30;;;3.10;93.30;;;;;;5017173;28;20034;-85
2021/01/15 11:17:12;;;;;;;19.83;10.70;;;3.20;93.00;;;;;;5017912;28;20038;-85
2021/01/15 11:19:38;;;;;;;22.73;11.45;;;3.20;92.30;;;;;;5014860;28;20032;-84
2021/01/15 11:22:03;;;;;;;21.90;11.80;;;3.30;92.80;;;;;;5017830;28;20030;-85
2021/01/15 11:24:29;;;;;;;21.67;11.20;;;3.20;92.30;;;;;;5023087;28;20383;-85
2021/01/15 11:26:55;;;;;;;22.02;11.85;;;3.20;92.80;;;;;;5016258;28;20045;-85
2021/01/15 11:29:20;;;;;;;23.13;11.45;;;3.20;93.50;;;;;;5013832;28;20552;-85
2021/01/15 11:31:46;;;;;;;27.48;11.57;;;3.30;92.50;;;;;;5016273;28;20391;-85
2021/01/15 11:34:12;;;;;;;23.40;11.73;;;3.40;92.30;;;;;;5019358;28;20021;-86
2021/01/15 11:36:38;;;;;;;28.90;12.88;;;3.50;92.00;;;;;;5006538;28;20408;-85
2021/01/15 11:39:06;;;;;;;33.55;13.52;;;3.40;92.00;;;;;;5025141;28;20072;-83
2021/01/15 11:41:32;;;;;;;26.52;12.18;;;3.60;92.40;;;;;;5022634;28;20030;-83
2021/01/15 11:43:58;;;;;;;23.92;12.02;;;3.70;91.60;;;;;;5018445;28;20034;-82
2021/01/15 11:46:23;;;;;;;21.50;11.73;;;3.80;92.10;;;;;;5021094;28;20040;-83
2021/01/15 11:48:49;;;;;;;27.00;12.52;;;4.00;91.00;;;;;;5020205;28;20057;-86
2021/01/15 11:51:15;;;;;;;33.05;11.55;;;3.80;90.50;;;;;;5021580;28;20089;-82
2021/01/15 11:53:41;;;;;;;22.67;12.48;;;3.70;91.00;;;;;;5021809;28;20061;-85
2021/01/15 11:56:08;;;;;;;25.80;12.45;;;3.60;91.20;;;;;;5021367;28;20042;-86
2021/01/15 11:58:34;;;;;;;24.00;12.25;;;3.70;91.80;;;;;;5020142;28;20031;-86
2021/01/15 12:01:00;;;;;;;27.33;12.60;;;3.80;91.90;;;;;;5011703;28;20026;-85
2021/01/15 12:03:26;;;;;;;22.95;12.25;;;3.80;91.30;;;;;;5012268;28;20022;-87
2021/01/15 12:05:52;;;;;;;21.80;12.50;;;3.90;91.30;;;;;;5014668;28;20038;-85
2021/01/15 12:08:23;;;;;;;31.00;14.48;;;3.90;90.30;;;;;;5012146;28;20034;-87
2021/01/15 12:10:54;;;;;;;29.35;13.60;;;3.90;91.00;;;;;;5015861;28;20057;-84
2021/01/15 12:13:20;;;;;;;24.13;12.75;;;4.00;91.90;;;;;;5007441;28;20491;-85
2021/01/15 12:15:52;;;;;;;;;;;4.00;90.20;;;;;;5017448;28;20053;-86
2021/01/15 12:18:18;;;;;;;23.08;12.35;;;3.80;90.20;;;;;;5010015;28;19905;-84
2021/01/15 12:20:44;;;;;;;;;;;3.70;91.50;;;;;;5013021;28;20030;-85
2021/01/15 12:23:11;;;;;;;26.15;13.70;;;3.70;91.50;;;;;;5021163;28;19910;-85
2021/01/15 12:25:40;;;;;;;24.17;13.85;;;3.80;91.60;;;;;;5016064;28;20455;-84
2021/01/15 12:28:13;;;;;;;24.23;11.30;;;3.80;91.80;;;;;;5011791;28;20357;-85
2021/01/15 12:30:43;;;;;;;27.95;13.18;;;4.00;89.20;;;;;;5011793;28;20061;-85
2021/01/15 12:33:16;;;;;;;21.83;12.73;;;4.00;90.40;;;;;;5012938;28;20025;-84
2021/01/15 12:35:43;;;;;;;36.10;15.02;;;4.00;91.30;;;;;;5011840;28;20038;-85
2021/01/15 12:38:13;;;;;;;21.50;13.38;;;4.00;90.20;;;;;;5003476;28;20022;-84
2021/01/15 12:40:39;;;;;;;21.10;12.02;;;4.10;90.80;;;;;;5009177;28;20030;-85
2021/01/15 12:43:07;;;;;;;21.17;12.45;;;4.10;91.00;;;;;;5006781;28;20045;-82
2021/01/15 12:45:37;;;;;;;19.35;12.48;;;4.20;90.30;;;;;;5011657;28;20022;-84
2021/01/15 12:48:05;;;;;;;31.55;12.68;;;4.40;90.90;;;;;;5013639;28;20037;-85
2021/01/15 12:50:30;;;;;;;16.88;11.77;;;4.50;90.60;;;;;;5015072;28;20052;-85
2021/01/15 12:52:57;;;;;;;24.00;12.38;;;4.40;89.20;;;;;;5009165;28;20471;-85
2021/01/15 12:55:27;;;;;;;25.85;12.63;;;4.30;90.00;;;;;;5011280;28;20490;-84